National Weather Service Raw Text Product

Displaying AFOS PIL: TAFFOD Received: 2018-05-17 11:30 UTC


549 
FTUS43 KDMX 171130
TAFFOD
TAF
KFOD 171130Z 1712/1812 16004KT P6SM FEW200
     FM172300 14008KT P6SM FEW250
     FM180600 11007KT P6SM SKC=